Time;durP1;ratioP1;P1;durP2;ratioP2;P2;SDS_P1;SDS_P2;PMS_P1;PMS_P2;Temp;Humidity;BMP_temperature;BMP_pressure;BME280_temperature;BME280_humidity;BME280_pressure;Samples;Min_cycle;Max_cycle;Signal;HPM_P1;HPM_P2
2022/06/12 00:04:14;;;;;;;3.43;1.20;;;;;14.10;101828.00;;;;10192473;29;20258;-80
2022/06/12 00:09:17;;;;;;;3.80;1.40;;;;;13.90;101832.00;;;;10200605;29;20626;-80
2022/06/12 00:14:19;;;;;;;4.07;1.47;;;;;13.70;101821.00;;;;10211359;29;20194;-79
2022/06/12 00:19:21;;;;;;;2.97;1.07;;;;;13.60;101821.00;;;;10225610;29;20273;-80
2022/06/12 00:24:25;;;;;;;9.17;1.67;;;;;13.40;101828.00;;;;10240783;29;20205;-79
2022/06/12 00:29:30;;;;;;;4.43;1.17;;;;;13.30;101824.00;;;;10192732;29;20217;-80
2022/06/12 00:34:41;;;;;;;7.70;1.83;;;;;13.10;101821.00;;;;10224118;28;20261;-79
2022/06/12 00:39:45;;;;;;;6.07;1.50;;;;;13.00;101822.00;;;;10224640;29;20178;-80
2022/06/12 00:44:47;;;;;;;5.60;1.37;;;;;12.90;101815.00;;;;10198929;29;20254;-79
2022/06/12 00:50:00;;;;;;;5.27;1.90;;;;;12.80;101817.00;;;;10224706;29;20272;-80
2022/06/12 00:55:17;;;;;;;4.03;1.67;;;;;12.70;101818.00;;;;10209205;29;20269;-79
2022/06/12 01:00:19;;;;;;;6.87;2.03;;;;;12.60;101819.00;;;;10222764;29;20280;-79
2022/06/12 01:10:45;;;;;;;4.87;1.67;;;;;12.50;101817.00;;;;10189118;29;20202;-79
2022/06/12 01:15:53;;;;;;;6.60;2.00;;;;;12.50;101816.00;;;;10239849;29;20200;-79
2022/06/12 01:20:58;;;;;;;7.57;2.00;;;;;12.40;101805.00;;;;10224005;29;20198;-78
2022/06/12 01:26:22;;;;;;;6.67;1.87;;;;;12.30;101803.00;;;;10223553;29;20186;-79
2022/06/12 01:31:24;;;;;;;5.47;1.73;;;;;12.30;101801.00;;;;10208171;29;20740;-78
2022/06/12 01:36:54;;;;;;;8.23;1.63;;;;;12.10;101811.00;;;;10224460;29;20193;-78
2022/06/12 01:42:25;;;;;;;8.97;1.60;;;;;12.10;101806.00;;;;10207209;29;20208;-79
2022/06/12 01:47:36;;;;;;;5.80;1.70;;;;;12.00;101804.00;;;;10227526;29;20252;-79
2022/06/12 01:53:03;;;;;;;8.47;1.67;;;;;12.00;101806.00;;;;10247410;29;20196;-79
2022/06/12 01:58:28;;;;;;;6.50;2.00;;;;;11.90;101798.00;;;;10229435;29;20205;-78
2022/06/12 02:03:43;;;;;;;5.93;2.17;;;;;11.80;101804.00;;;;10235115;29;20197;-79
2022/06/12 02:08:58;;;;;;;6.13;2.13;;;;;11.80;101801.00;;;;10180268;29;20293;-78
2022/06/12 02:14:02;;;;;;;6.03;1.80;;;;;11.70;101804.00;;;;10229287;29;20218;-78
2022/06/12 02:19:11;;;;;;;6.33;2.00;;;;;11.60;101811.00;;;;10207942;29;20760;-78
2022/06/12 02:24:19;;;;;;;8.27;1.70;;;;;11.60;101806.00;;;;10222048;29;20669;-79
2022/06/12 02:29:24;;;;;;;6.27;2.30;;;;;11.50;101806.00;;;;10220275;29;20190;-79
2022/06/12 02:34:34;;;;;;;9.00;2.30;;;;;11.50;101794.00;;;;10230789;29;20198;-79
2022/06/12 02:39:51;;;;;;;6.50;2.30;;;;;11.50;101801.00;;;;10229715;29;20218;-78
2022/06/12 02:45:06;;;;;;;7.67;2.17;;;;;11.50;101795.00;;;;10213672;29;20228;-79
2022/06/12 02:50:11;;;;;;;7.63;2.30;;;;;11.40;101807.00;;;;10217583;29;20560;-78
2022/06/12 02:55:19;;;;;;;7.03;2.17;;;;;11.40;101805.00;;;;10190531;29;20261;-79
2022/06/12 03:00:26;;;;;;;8.50;2.23;;;;;11.40;101813.00;;;;10189709;29;20203;-78
2022/06/12 03:05:31;;;;;;;7.37;2.00;;;;;11.40;101809.00;;;;10259060;29;20233;-79
2022/06/12 03:10:38;;;;;;;8.70;2.47;;;;;11.30;101802.00;;;;10227985;29;20193;-79
2022/06/12 03:15:43;;;;;;;8.90;2.67;;;;;11.30;101801.00;;;;10244245;29;20201;-79
2022/06/12 03:21:15;;;;;;;8.33;2.17;;;;;11.40;101809.00;;;;10229319;29;20206;-79
2022/06/12 03:26:38;;;;;;;7.23;1.90;;;;;11.40;101803.00;;;;10194156;29;20292;-79
2022/06/12 03:31:53;;;;;;;7.83;2.10;;;;;11.30;101810.00;;;;10229478;29;20248;-79
2022/06/12 03:37:07;;;;;;;8.33;2.23;;;;;11.30;101807.00;;;;10213903;29;20629;-80
2022/06/12 03:42:29;;;;;;;7.00;2.37;;;;;11.30;101810.00;;;;10214478;29;20206;-79
2022/06/12 03:48:01;;;;;;;11.03;2.50;;;;;11.30;101816.00;;;;10208145;29;20229;-80
2022/06/12 03:53:10;;;;;;;7.50;2.43;;;;;11.40;101809.00;;;;10179511;29;20249;-80
2022/06/12 03:58:18;;;;;;;8.50;2.20;;;;;11.50;101818.00;;;;10246912;29;20205;-80
2022/06/12 04:03:23;;;;;;;6.07;1.83;;;;;11.60;101832.00;;;;10224749;29;20661;-79
2022/06/12 04:08:43;;;;;;;10.07;2.50;;;;;11.80;101829.00;;;;10226405;28;20688;-79
2022/06/12 04:13:46;;;;;;;8.10;2.30;;;;;12.00;101831.00;;;;10211005;29;20243;-78
2022/06/12 04:18:49;;;;;;;8.40;2.23;;;;;12.30;101838.00;;;;10200697;29;20206;-79
2022/06/12 04:24:06;;;;;;;9.57;2.63;;;;;12.60;101824.00;;;;10232496;29;20208;-79
2022/06/12 04:29:12;;;;;;;7.63;2.47;;;;;12.80;101823.00;;;;10201886;29;20182;-79
2022/06/12 04:34:19;;;;;;;10.03;3.03;;;;;13.10;101827.00;;;;10236432;29;20205;-79
2022/06/12 04:39:26;;;;;;;11.67;3.10;;;;;13.40;101829.00;;;;10225011;29;20683;-79
2022/06/12 04:44:29;;;;;;;9.50;3.10;;;;;13.70;101836.00;;;;10198589;29;20206;-79
2022/06/12 04:49:34;;;;;;;10.23;2.47;;;;;14.00;101834.00;;;;10201041;29;20194;-80
2022/06/12 04:54:39;;;;;;;13.17;3.10;;;;;14.20;101837.00;;;;10185536;29;20553;-79
2022/06/12 04:59:42;;;;;;;9.63;2.97;;;;;14.60;101827.00;;;;10214024;29;20963;-79
2022/06/12 05:04:44;;;;;;;9.50;2.97;;;;;15.00;101832.00;;;;10210738;29;20222;-79
2022/06/12 05:09:47;;;;;;;16.97;3.23;;;;;15.50;101828.00;;;;10199494;29;20210;-79
2022/06/12 05:14:49;;;;;;;11.67;3.43;;;;;16.00;101827.00;;;;10197297;29;20528;-80
2022/06/12 05:19:53;;;;;;;13.53;3.10;;;;;16.40;101838.00;;;;10184372;29;20218;-78
2022/06/12 05:24:54;;;;;;;11.95;3.00;;;;;16.90;101835.00;;;;10231012;29;20288;-80
2022/06/12 05:29:56;;;;;;;13.23;3.00;;;;;17.30;101830.00;;;;10207520;29;20636;-79
2022/06/12 05:34:58;;;;;;;17.25;4.22;;;;;17.70;101838.00;;;;10223907;29;20197;-79
2022/06/12 05:40:00;;;;;;;11.00;3.78;;;;;18.10;101831.00;;;;10207670;29;20216;-78
2022/06/12 05:45:04;;;;;;;11.55;3.35;;;;;18.40;101834.00;;;;10206705;29;20198;-79
2022/06/12 05:50:07;;;;;;;8.23;3.25;;;;;18.60;101839.00;;;;10207851;29;20257;-80
2022/06/12 05:55:10;;;;;;;13.05;4.13;;;;;18.80;101840.00;;;;10206637;29;20193;-80
2022/06/12 06:00:19;;;;;;;13.52;3.80;;;;;19.20;101844.00;;;;10205911;29;20213;-79
2022/06/12 06:05:21;;;;;;;12.43;3.47;;;;;19.70;101852.00;;;;10223046;28;20225;-80
2022/06/12 06:10:26;;;;;;;15.13;3.90;;;;;20.10;101860.00;;;;10206485;29;20190;-79
2022/06/12 06:15:28;;;;;;;11.48;3.72;;;;;20.50;101864.00;;;;10236729;29;20202;-80
2022/06/12 06:20:33;;;;;;;10.95;3.30;;;;;21.50;101865.00;;;;10210097;29;20269;-81
2022/06/12 06:25:37;;;;;;;15.05;3.85;;;;;22.20;101863.00;;;;10205922;29;20667;-80
2022/06/12 06:30:40;;;;;;;8.30;3.10;;;;;22.20;101870.00;;;;10222079;28;20561;-80
2022/06/12 06:35:42;;;;;;;19.95;4.20;;;;;20.90;101872.00;;;;10236511;29;20565;-79
2022/06/12 06:40:45;;;;;;;13.32;3.95;;;;;21.00;101865.00;;;;10229225;29;20264;-80
2022/06/12 06:51:25;;;;;;;17.92;4.30;;;;;22.20;101880.00;;;;10210938;29;20297;-79
2022/06/12 06:56:27;;;;;;;16.67;3.85;;;;;22.50;101886.00;;;;10221086;29;20680;-79
2022/06/12 07:01:29;;;;;;;16.60;4.15;;;;;23.10;101889.00;;;;10195433;29;20213;-79
2022/06/12 07:06:32;;;;;;;12.18;3.58;;;;;23.10;101887.00;;;;10242195;28;20633;-79
2022/06/12 07:11:34;;;;;;;13.52;4.00;;;;;23.30;101888.00;;;;10211407;29;20229;-79
2022/06/12 07:16:40;;;;;;;14.77;3.78;;;;;23.70;101892.00;;;;10241259;29;20217;-79
2022/06/12 07:21:42;;;;;;;15.48;3.58;;;;;23.60;101893.00;;;;10233101;28;20194;-79
2022/06/12 07:26:46;;;;;;;11.68;4.22;;;;;24.40;101894.00;;;;10250212;28;20300;-79
2022/06/12 07:31:49;;;;;;;15.57;3.45;;;;;24.10;101893.00;;;;10240960;28;20713;-79
2022/06/12 07:36:53;;;;;;;14.75;3.28;;;;;24.30;101889.00;;;;10246213;28;20601;-79
2022/06/12 07:41:55;;;;;;;11.98;3.00;;;;;24.50;101881.00;;;;10265749;28;20224;-79
2022/06/12 07:46:58;;;;;;;9.57;3.28;;;;;24.30;101890.00;;;;10259814;28;20223;-79
2022/06/12 07:52:05;;;;;;;12.02;3.65;;;;;24.00;101878.00;;;;10220131;28;20195;-79
2022/06/12 07:57:08;;;;;;;13.85;3.90;;;;;24.40;101876.00;;;;10238209;28;20192;-79
2022/06/12 08:02:10;;;;;;;15.85;4.30;;;;;25.30;101888.00;;;;10219038;28;20229;-79
2022/06/12 08:07:12;;;;;;;13.13;3.10;;;;;26.20;101882.00;;;;10243205;28;20222;-79
2022/06/12 08:12:15;;;;;;;9.65;3.58;;;;;25.90;101887.00;;;;10234787;28;20208;-79
2022/06/12 08:17:17;;;;;;;10.57;3.10;;;;;25.30;101881.00;;;;10224266;29;20245;-79
2022/06/12 08:22:20;;;;;;;11.43;3.63;;;;;25.20;101885.00;;;;10211053;28;20224;-78
2022/06/12 08:27:22;;;;;;;10.02;2.75;;;;;25.70;101883.00;;;;10258213;28;20207;-79
2022/06/12 08:32:24;;;;;;;12.32;3.45;;;;;27.00;101875.00;;;;10238824;28;20209;-79
2022/06/12 08:37:30;;;;;;;7.45;3.28;;;;;27.70;101872.00;;;;10256745;28;20190;-80
2022/06/12 08:42:42;;;;;;;11.35;3.03;;;;;28.20;101870.00;;;;10247206;28;20596;-78
2022/06/12 08:48:14;;;;;;;8.27;2.95;;;;;27.40;101871.00;;;;10205008;28;20352;-79
2022/06/12 08:53:30;;;;;;;8.38;2.90;;;;;28.60;101865.00;;;;10227942;29;20194;-79
2022/06/12 08:58:54;;;;;;;10.20;2.67;;;;;29.80;101859.00;;;;10223903;29;20240;-79
2022/06/12 09:03:56;;;;;;;11.30;3.08;;;;;30.20;101859.00;;;;10214348;29;20220;-79
2022/06/12 09:09:10;;;;;;;9.85;3.00;;;;;31.10;101852.00;;;;10184023;29;20226;-80
2022/06/12 09:14:38;;;;;;;5.63;2.58;;;;;31.20;101846.00;;;;10210116;29;20225;-79
2022/06/12 09:19:44;;;;;;;5.55;2.38;;;;;30.00;101861.00;;;;10238158;29;20227;-79
2022/06/12 09:25:10;;;;;;;7.45;2.45;;;;;30.00;101841.00;;;;10221991;29;21097;-79
2022/06/12 09:30:44;;;;;;;8.15;2.95;;;;;27.80;101861.00;;;;10200859;29;20233;-79
2022/06/12 09:36:01;;;;;;;7.82;2.38;;;;;25.80;101854.00;;;;10199421;29;20193;-80
2022/06/12 09:41:12;;;;;;;8.85;2.55;;;;;26.80;101843.00;;;;10199313;29;20190;-79
2022/06/12 09:46:14;;;;;;;6.03;1.92;;;;;28.60;101831.00;;;;10220728;29;20210;-79
2022/06/12 09:51:27;;;;;;;8.38;2.15;;;;;26.70;101851.00;;;;10181870;29;20238;-79
2022/06/12 09:56:38;;;;;;;5.78;1.80;;;;;26.80;101834.00;;;;10214072;29;20201;-78
2022/06/12 10:01:44;;;;;;;8.30;2.10;;;;;28.90;101842.00;;;;10217831;29;20671;-79
2022/06/12 10:06:51;;;;;;;5.20;2.08;;;;;26.20;101834.00;;;;10199787;28;20233;-79
2022/06/12 10:12:07;;;;;;;4.28;1.92;;;;;27.80;101831.00;;;;10217101;29;20744;-79
2022/06/12 10:17:18;;;;;;;4.97;1.80;;;;;30.00;101843.00;;;;10229361;29;20193;-79
2022/06/12 10:22:29;;;;;;;8.30;2.38;;;;;26.30;101847.00;;;;10228471;29;20198;-79
2022/06/12 10:27:46;;;;;;;10.80;2.90;;;;;27.20;101819.00;;;;10244603;29;20261;-79
2022/06/12 10:32:55;;;;;;;9.30;2.85;;;;;29.00;101816.00;;;;10242631;29;20193;-79
2022/06/12 10:38:04;;;;;;;8.95;2.50;;;;;30.20;101819.00;;;;10244597;29;20197;-80
2022/06/12 10:43:36;;;;;;;4.93;2.60;;;;;31.50;101827.00;;;;10183237;28;20623;-79
2022/06/12 10:48:38;;;;;;;7.22;2.17;;;;;30.50;101828.00;;;;10219428;29;20237;-79
2022/06/12 10:53:40;;;;;;;9.30;3.00;;;;;29.40;101808.00;;;;10227655;29;20561;-79
2022/06/12 10:59:09;;;;;;;8.93;2.92;;;;;30.30;101816.00;;;;10226029;29;20217;-80
2022/06/12 11:04:56;;;;;;;4.32;2.13;;;;;29.80;101802.00;;;;10258383;28;20249;-80
2022/06/12 11:10:22;;;;;;;7.40;2.00;;;;;29.20;101810.00;;;;10210650;29;20288;-79
2022/06/12 11:15:52;;;;;;;11.70;2.72;;;;;28.50;101808.00;;;;10223995;29;20183;-79
2022/06/12 11:21:21;;;;;;;7.22;2.38;;;;;28.90;101800.00;;;;10249254;28;20646;-79
2022/06/12 11:27:08;;;;;;;5.90;2.22;;;;;29.90;101783.00;;;;10216114;29;20226;-78
2022/06/12 11:32:43;;;;;;;6.10;2.10;;;;;30.40;101793.00;;;;10209568;29;20565;-80
2022/06/12 11:37:54;;;;;;;7.32;2.38;;;;;26.80;101790.00;;;;10210378;29;20679;-80
2022/06/12 11:43:09;;;;;;;8.52;2.65;;;;;29.00;101774.00;;;;10241061;29;20557;-80
2022/06/12 11:48:38;;;;;;;5.80;1.95;;;;;29.00;101771.00;;;;10227588;29;20305;-80
2022/06/12 11:54:04;;;;;;;5.22;1.85;;;;;27.30;101771.00;;;;10226033;29;20241;-81
2022/06/12 11:59:27;;;;;;;4.38;2.10;;;;;28.30;101757.00;;;;10225992;29;20189;-79
2022/06/12 12:04:52;;;;;;;6.47;2.03;;;;;27.10;101775.00;;;;10213043;29;20197;-80
2022/06/12 12:10:13;;;;;;;5.90;2.70;;;;;27.90;101763.00;;;;10201403;29;20301;-80
2022/06/12 12:15:23;;;;;;;10.63;2.50;;;;;28.10;101746.00;;;;10171366;29;20208;-80
2022/06/12 12:20:34;;;;;;;4.25;2.10;;;;;30.10;101756.00;;;;10186494;29;20257;-81
2022/06/12 12:25:39;;;;;;;6.00;2.20;;;;;30.10;101751.00;;;;10219690;29;20191;-80
2022/06/12 12:30:43;;;;;;;6.10;2.38;;;;;29.10;101735.00;;;;10203910;29;20214;-80
2022/06/12 12:41:19;;;;;;;4.35;2.33;;;;;31.20;101730.00;;;;10197623;29;20216;-80
2022/06/12 12:46:25;;;;;;;4.55;2.10;;;;;31.80;101732.00;;;;10221498;29;20194;-81
2022/06/12 12:51:36;;;;;;;6.32;2.10;;;;;31.80;101723.00;;;;10217549;29;20217;-81
2022/06/12 12:56:59;;;;;;;11.65;2.70;;;;;30.80;101717.00;;;;10229410;29;20276;-81
2022/06/12 13:02:17;;;;;;;4.38;2.03;;;;;30.20;101711.00;;;;10224053;29;20217;-81
2022/06/12 13:07:59;;;;;;;8.43;2.42;;;;;31.10;101705.00;;;;10203625;29;20226;-80
2022/06/12 13:13:08;;;;;;;5.93;2.10;;;;;31.60;101691.00;;;;10200584;29;20193;-80
2022/06/12 13:18:44;;;;;;;6.28;2.05;;;;;31.40;101693.00;;;;10223634;29;20178;-82
2022/06/12 13:24:09;;;;;;;5.22;1.95;;;;;32.10;101695.00;;;;10222337;29;20872;-81
2022/06/12 13:29:18;;;;;;;7.40;2.00;;;;;32.10;101683.00;;;;10237799;29;20217;-80
2022/06/12 13:34:25;;;;;;;3.05;1.48;;;;;31.90;101683.00;;;;10233867;29;20252;-81
2022/06/12 13:39:36;;;;;;;4.80;1.77;;;;;31.30;101688.00;;;;10238333;29;20217;-81
2022/06/12 13:44:38;;;;;;;3.53;1.60;;;;;30.80;101682.00;;;;10212726;29;20202;-81
2022/06/12 13:49:45;;;;;;;2.95;1.98;;;;;29.80;101681.00;;;;10231426;29;20213;-82
2022/06/12 13:54:47;;;;;;;5.65;1.70;;;;;30.20;101663.00;;;;10225638;29;20230;-82
2022/06/12 13:59:49;;;;;;;4.45;1.70;;;;;31.20;101662.00;;;;10232045;29;20205;-81
2022/06/12 14:04:56;;;;;;;6.22;1.83;;;;;31.60;101658.00;;;;10246921;29;20358;-81
2022/06/12 14:10:04;;;;;;;5.40;1.80;;;;;32.80;101654.00;;;;10230432;29;20244;-81
2022/06/12 14:15:31;;;;;;;5.90;2.28;;;;;34.60;101652.00;;;;10208156;29;20206;-81
2022/06/12 14:20:36;;;;;;;4.88;1.65;;;;;34.80;101648.00;;;;10190190;29;20202;-80
2022/06/12 14:25:48;;;;;;;8.63;1.98;;;;;34.90;101647.00;;;;10233883;29;20194;-81
2022/06/12 14:31:20;;;;;;;6.13;1.90;;;;;33.00;101661.00;;;;10216604;29;20206;-80
2022/06/12 14:36:36;;;;;;;5.55;2.00;;;;;33.20;101639.00;;;;10213275;29;20217;-81
2022/06/12 14:41:48;;;;;;;2.58;1.23;;;;;30.80;101627.00;;;;10229312;29;20197;-81
2022/06/12 14:46:50;;;;;;;2.60;1.20;;;;;29.70;101633.00;;;;10228698;29;20194;-81
2022/06/12 14:51:53;;;;;;;3.45;1.63;;;;;33.30;101621.00;;;;10228065;28;20276;-80
2022/06/12 14:56:55;;;;;;;4.55;1.38;;;;;34.00;101613.00;;;;10239431;29;20940;-81
2022/06/12 15:01:58;;;;;;;3.97;1.35;;;;;33.90;101636.00;;;;10221574;29;20193;-81
2022/06/12 15:07:00;;;;;;;4.50;1.48;;;;;29.50;101630.00;;;;10211480;29;20236;-81
2022/06/12 15:12:02;;;;;;;1.90;1.10;;;;;28.70;101606.00;;;;10242953;29;20214;-80
2022/06/12 15:17:05;;;;;;;4.13;1.20;;;;;32.70;101599.00;;;;10226713;29;20208;-80
2022/06/12 15:22:13;;;;;;;3.30;1.30;;;;;34.70;101596.00;;;;10227349;29;20198;-80
2022/06/12 15:32:44;;;;;;;6.38;2.10;;;;;33.10;101623.00;;;;10228966;29;20332;-81
2022/06/12 15:37:48;;;;;;;7.40;2.22;;;;;29.80;101622.00;;;;10238843;29;20204;-80
2022/06/12 15:42:50;;;;;;;5.38;2.35;;;;;26.70;101626.00;;;;10204884;29;20190;-80
2022/06/12 15:47:53;;;;;;;5.80;2.50;;;;;25.70;101618.00;;;;10204007;29;20230;-81
2022/06/12 15:52:55;;;;;;;6.97;2.58;;;;;25.30;101618.00;;;;10172528;29;20689;-81
2022/06/12 15:57:58;;;;;;;7.65;2.97;;;;;25.10;101620.00;;;;10205807;29;20193;-80
2022/06/12 16:03:00;;;;;;;5.22;2.20;;;;;25.40;101607.00;;;;10227238;29;20193;-81
2022/06/12 16:08:02;;;;;;;6.53;2.42;;;;;25.30;101615.00;;;;10210168;29;20268;-81
2022/06/12 16:13:04;;;;;;;5.80;2.70;;;;;25.00;101613.00;;;;10225819;29;20994;-80
2022/06/12 16:18:06;;;;;;;8.38;2.50;;;;;24.20;101616.00;;;;10210974;29;20288;-81
2022/06/12 16:23:08;;;;;;;6.63;3.20;;;;;23.30;101618.00;;;;10210363;29;20300;-81
2022/06/12 16:28:11;;;;;;;9.35;3.03;;;;;22.70;101616.00;;;;10224738;29;20300;-81
2022/06/12 16:33:14;;;;;;;5.75;2.40;;;;;22.60;101619.00;;;;10209467;29;20304;-81
2022/06/12 16:38:17;;;;;;;4.85;2.22;;;;;22.20;101618.00;;;;10225382;29;20194;-80
2022/06/12 16:43:20;;;;;;;7.80;3.15;;;;;22.20;101622.00;;;;10223612;29;20661;-80
2022/06/12 16:48:23;;;;;;;10.00;3.00;;;;;22.30;101627.00;;;;10209275;29;20209;-80
2022/06/12 16:53:26;;;;;;;6.95;2.45;;;;;22.00;101615.00;;;;10224858;29;20190;-80
2022/06/12 16:58:29;;;;;;;10.95;2.85;;;;;21.70;101624.00;;;;10239179;29;20206;-81
2022/06/12 17:03:31;;;;;;;5.55;2.00;;;;;21.80;101602.00;;;;10210893;29;20285;-80
2022/06/12 17:08:33;;;;;;;7.07;2.50;;;;;21.60;101623.00;;;;10223466;29;20596;-80
2022/06/12 17:13:35;;;;;;;16.15;2.75;;;;;21.60;101631.00;;;;10210236;29;20245;-80
2022/06/12 17:23:57;;;;;;;6.28;2.33;;;;;21.50;101619.00;;;;10238935;29;20212;-80
2022/06/12 17:28:59;;;;;;;6.45;2.08;;;;;21.20;101628.00;;;;10207069;29;20213;-81
2022/06/12 17:34:02;;;;;;;5.07;2.30;;;;;21.30;101617.00;;;;10208142;29;20300;-80
2022/06/12 17:39:05;;;;;;;3.40;1.90;;;;;21.50;101631.00;;;;10204874;29;20189;-80
2022/06/12 17:44:07;;;;;;;4.97;1.60;;;;;21.60;101622.00;;;;10183198;29;20283;-81
2022/06/12 17:49:10;;;;;;;2.35;1.27;;;;;21.50;101634.00;;;;10167530;29;20214;-80
2022/06/12 17:54:13;;;;;;;2.88;1.40;;;;;21.50;101620.00;;;;10190694;29;20189;-80
2022/06/12 17:59:15;;;;;;;5.18;1.75;;;;;21.30;101623.00;;;;10221584;29;20194;-80
2022/06/12 18:04:17;;;;;;;4.03;1.73;;;;;20.90;101622.00;;;;10206080;29;20220;-80
2022/06/12 18:09:19;;;;;;;7.82;1.73;;;;;21.10;101616.00;;;;10188446;29;20232;-81
2022/06/12 18:19:01;;;;;;;4.72;1.95;;;;;21.30;101626.00;;;;10221702;29;20210;-81
2022/06/12 18:19:43;;;;;;;6.93;2.03;;;;;21.10;101607.00;;;;10222066;29;20220;-81
2022/06/12 18:24:45;;;;;;;5.35;1.50;;;;;21.10;101617.00;;;;10206460;29;20245;-81
2022/06/12 18:29:47;;;;;;;6.75;1.80;;;;;20.90;101617.00;;;;10210278;29;20241;-80
2022/06/12 18:34:49;;;;;;;5.45;1.83;;;;;20.70;101622.00;;;;10245187;29;20542;-80
2022/06/12 18:39:51;;;;;;;4.07;2.03;;;;;20.40;101624.00;;;;10234899;29;20552;-80
2022/06/12 18:44:53;;;;;;;5.82;1.83;;;;;20.30;101617.00;;;;10206430;29;20195;-81
2022/06/12 18:49:55;;;;;;;5.25;1.73;;;;;20.10;101624.00;;;;10190445;29;20239;-79
2022/06/12 18:54:57;;;;;;;5.60;1.60;;;;;20.00;101631.00;;;;10218402;29;20213;-79
2022/06/12 18:59:59;;;;;;;5.30;1.80;;;;;19.70;101627.00;;;;10241501;29;20193;-81
2022/06/12 19:05:02;;;;;;;5.40;1.90;;;;;19.50;101627.00;;;;10228746;29;20270;-80
2022/06/12 19:10:05;;;;;;;3.78;1.70;;;;;19.40;101626.00;;;;10212085;29;20226;-80
2022/06/12 19:15:08;;;;;;;6.45;1.90;;;;;19.40;101627.00;;;;10212250;29;20204;-80
2022/06/12 19:20:11;;;;;;;3.97;2.20;;;;;19.20;101628.00;;;;10227646;29;20182;-80
2022/06/12 19:25:16;;;;;;;6.53;1.98;;;;;19.40;101626.00;;;;10202535;29;20208;-81
2022/06/12 19:30:22;;;;;;;6.53;2.17;;;;;19.20;101629.00;;;;10219867;29;20210;-80
2022/06/12 19:35:25;;;;;;;7.70;1.95;;;;;18.80;101637.00;;;;10242621;29;20245;-81
2022/06/12 19:40:28;;;;;;;3.35;1.63;;;;;18.40;101628.00;;;;10229798;28;20221;-82
2022/06/12 19:45:30;;;;;;;5.10;2.00;;;;;18.10;101641.00;;;;10213755;29;20209;-81
2022/06/12 19:50:32;;;;;;;4.22;2.00;;;;;17.80;101643.00;;;;10229633;29;20268;-82
2022/06/12 19:55:35;;;;;;;6.95;1.75;;;;;17.40;101631.00;;;;10219399;29;20190;-82
2022/06/12 20:00:37;;;;;;;7.63;2.00;;;;;17.10;101639.00;;;;10190760;29;20260;-82
2022/06/12 20:10:59;;;;;;;8.37;2.23;;;;;16.50;101646.00;;;;10215260;29;20317;-83
2022/06/12 20:16:02;;;;;;;4.88;1.90;;;;;16.30;101655.00;;;;10204405;29;20222;-82
2022/06/12 20:21:10;;;;;;;6.03;1.90;;;;;16.00;101658.00;;;;10223482;29;20198;-81
2022/06/12 20:26:12;;;;;;;7.03;2.23;;;;;15.70;101662.00;;;;10242739;29;20273;-83
2022/06/12 20:31:14;;;;;;;6.27;2.20;;;;;15.50;101665.00;;;;10222636;29;20214;-81
2022/06/12 20:36:16;;;;;;;7.90;2.20;;;;;15.30;101662.00;;;;10208123;29;20205;-82
2022/06/12 20:41:18;;;;;;;5.60;2.10;;;;;15.20;101657.00;;;;10223883;29;20256;-82
2022/06/12 20:46:21;;;;;;;5.00;1.83;;;;;15.10;101658.00;;;;10227444;29;20220;-81
2022/06/12 20:51:23;;;;;;;7.87;2.90;;;;;15.00;101652.00;;;;10224011;28;20213;-81
2022/06/12 20:56:25;;;;;;;7.27;2.50;;;;;14.90;101657.00;;;;10225830;29;20328;-81
2022/06/12 21:01:33;;;;;;;11.37;2.90;;;;;14.80;101651.00;;;;10194308;29;20218;-81
2022/06/12 21:06:35;;;;;;;6.93;2.87;;;;;14.70;101654.00;;;;10172179;29;20230;-81
2022/06/12 21:11:37;;;;;;;14.97;5.30;;;;;14.60;101663.00;;;;10187185;29;20218;-81
2022/06/12 21:16:40;;;;;;;8.27;4.17;;;;;14.50;101669.00;;;;10200094;29;20703;-82
2022/06/12 21:21:42;;;;;;;10.47;2.97;;;;;14.40;101669.00;;;;10209570;29;20197;-82
2022/06/12 21:26:44;;;;;;;5.67;2.83;;;;;14.30;101659.00;;;;10207942;29;20764;-82
2022/06/12 21:31:47;;;;;;;9.17;3.30;;;;;14.20;101661.00;;;;10218975;29;20282;-81
2022/06/12 21:36:49;;;;;;;6.43;2.90;;;;;14.10;101654.00;;;;10185572;29;20213;-81
2022/06/12 21:41:51;;;;;;;7.77;3.30;;;;;14.00;101637.00;;;;10191111;29;20593;-82
2022/06/12 21:46:53;;;;;;;6.37;2.87;;;;;14.00;101665.00;;;;10185469;29;20202;-82
2022/06/12 21:57:16;;;;;;;9.00;3.10;;;;;13.90;101655.00;;;;10204089;29;20276;-80
2022/06/12 22:02:19;;;;;;;6.13;2.77;;;;;13.80;101653.00;;;;10205154;28;20256;-81
2022/06/12 22:07:21;;;;;;;6.17;2.60;;;;;13.70;101657.00;;;;10217175;28;20313;-81
2022/06/12 22:12:23;;;;;;;6.07;2.70;;;;;13.60;101647.00;;;;10241079;29;20268;-81
2022/06/12 22:17:25;;;;;;;9.00;2.93;;;;;13.50;101654.00;;;;10232315;29;20202;-81
2022/06/12 22:22:27;;;;;;;6.13;3.00;;;;;13.40;101656.00;;;;10215325;29;20233;-81
2022/06/12 22:27:29;;;;;;;8.00;3.50;;;;;13.30;101656.00;;;;10216691;29;20653;-80
2022/06/12 22:32:31;;;;;;;6.50;3.93;;;;;13.20;101649.00;;;;10232311;29;20217;-80
2022/06/12 22:37:34;;;;;;;11.93;4.10;;;;;13.20;101654.00;;;;10213572;29;20621;-81
2022/06/12 22:42:35;;;;;;;11.73;4.50;;;;;13.10;101644.00;;;;10225374;29;20197;-81
2022/06/12 22:47:38;;;;;;;14.80;4.37;;;;;13.00;101634.00;;;;10189983;29;20198;-81
2022/06/12 22:52:39;;;;;;;10.40;3.83;;;;;13.00;101631.00;;;;10229626;29;20578;-80
2022/06/12 22:57:42;;;;;;;12.10;3.80;;;;;13.00;101639.00;;;;10208965;29;20654;-81
2022/06/12 23:02:45;;;;;;;11.70;3.53;;;;;13.00;101648.00;;;;10228094;29;20653;-81
2022/06/12 23:07:48;;;;;;;19.07;3.77;;;;;13.00;101649.00;;;;10223411;28;20253;-80
2022/06/12 23:12:50;;;;;;;11.97;4.67;;;;;12.90;101647.00;;;;10205526;29;20239;-81
2022/06/12 23:17:52;;;;;;;18.70;4.00;;;;;12.90;101647.00;;;;10173796;29;20194;-80
2022/06/12 23:28:16;;;;;;;8.90;3.70;;;;;12.80;101629.00;;;;10243808;29;20194;-81
2022/06/12 23:33:20;;;;;;;10.77;3.93;;;;;12.80;101625.00;;;;10225488;29;20665;-80
2022/06/12 23:38:24;;;;;;;12.10;4.23;;;;;12.80;101627.00;;;;10207982;29;20208;-81
2022/06/12 23:43:29;;;;;;;9.83;3.47;;;;;12.80;101629.00;;;;10185227;29;20390;-80
2022/06/12 23:48:31;;;;;;;11.50;3.27;;;;;12.80;101629.00;;;;10204579;29;20194;-80
2022/06/12 23:53:33;;;;;;;7.87;3.90;;;;;12.60;101637.00;;;;10226231;29;20214;-79
2022/06/12 23:58:35;;;;;;;8.30;3.70;;;;;12.50;101617.00;;;;10218127;29;20716;-80
